createdAt,value
2017-11-25T00:02:14.699Z,28.30
2017-11-25T00:04:43.718Z,26.00
2017-11-25T00:07:12.826Z,31.45
2017-11-25T00:09:41.896Z,33.00
2017-11-25T00:12:10.932Z,30.70
2017-11-25T00:14:39.977Z,32.75
2017-11-25T00:17:09.805Z,29.77
2017-11-25T00:19:39.680Z,30.98
2017-11-25T00:22:09.634Z,32.45
2017-11-25T00:24:38.652Z,35.47
2017-11-25T00:27:07.735Z,39.97
2017-11-25T00:29:36.971Z,37.33
2017-11-25T00:32:07.152Z,40.05
2017-11-25T00:34:36.277Z,39.30
2017-11-25T00:37:05.481Z,44.33
2017-11-25T00:39:35.455Z,38.38
2017-11-25T00:42:05.447Z,38.63
2017-11-25T00:44:35.253Z,42.13
2017-11-25T00:47:04.364Z,40.42
2017-11-25T00:49:33.397Z,41.10
2017-11-25T00:52:02.559Z,38.80
2017-11-25T00:54:31.582Z,38.08
2017-11-25T00:57:15.369Z,39.05
2017-11-25T00:59:45.144Z,41.75
2017-11-25T01:02:15.050Z,40.67
2017-11-25T01:04:44.081Z,36.35
2017-11-25T01:09:57.368Z,42.83
2017-11-25T01:12:26.586Z,40.30
2017-11-25T01:14:55.606Z,40.67
2017-11-25T01:17:28.058Z,36.22
2017-11-25T01:19:57.126Z,40.95
2017-11-25T01:22:26.272Z,40.53
2017-11-25T01:24:55.331Z,39.33
2017-11-25T01:27:25.407Z,41.97
2017-11-25T01:29:54.469Z,38.20
2017-11-25T01:32:23.749Z,39.70
2017-11-25T01:34:52.783Z,37.80
2017-11-25T01:37:22.593Z,35.97
2017-11-25T01:39:52.467Z,41.75
2017-11-25T01:42:22.184Z,38.97
2017-11-25T01:44:51.224Z,39.08
2017-11-25T01:47:20.301Z,39.65
2017-11-25T01:49:50.038Z,41.03
2017-11-25T01:52:20.335Z,44.17
2017-11-25T01:54:49.501Z,43.15
2017-11-25T01:57:18.675Z,47.13
2017-11-25T01:59:47.799Z,43.40
2017-11-25T02:02:17.818Z,44.42
2017-11-25T02:04:47.649Z,36.80
2017-11-25T02:07:17.496Z,45.90
2017-11-25T02:09:47.392Z,38.33
2017-11-25T02:12:16.518Z,43.17
2017-11-25T02:58:27.723Z,47.90
2017-11-25T03:00:57.969Z,47.05
2017-11-25T03:03:27.830Z,46.10
2017-11-25T03:05:56.846Z,45.83
2017-11-25T03:08:26.015Z,50.47
2017-11-25T03:10:55.140Z,47.97
2017-11-25T03:13:24.362Z,48.17
2017-11-25T03:15:54.133Z,52.92
2017-11-25T03:18:24.250Z,50.95
2017-11-25T03:20:53.282Z,54.70
2017-11-25T03:23:23.088Z,51.22
2017-11-25T03:25:52.908Z,57.17
2017-11-25T03:28:22.707Z,53.87
2017-11-25T03:30:52.858Z,55.83
2017-11-25T03:33:21.998Z,63.63
2017-11-25T03:35:51.101Z,58.13
2017-11-25T03:38:20.133Z,65.37
2017-11-25T03:40:49.990Z,59.65
2017-11-25T03:43:18.997Z,49.65
2017-11-25T03:45:48.363Z,51.35
2017-11-25T03:48:17.416Z,48.83
2017-11-25T03:50:47.194Z,49.30
2017-11-25T03:53:16.293Z,50.30
2017-11-25T03:55:45.462Z,50.03
2017-11-25T03:58:14.569Z,48.00
2017-11-25T04:00:45.060Z,47.60
2017-11-25T04:03:14.975Z,46.45
2017-11-25T04:05:44.749Z,51.97
2017-11-25T04:08:13.895Z,41.47
2017-11-25T04:10:42.957Z,41.70
2017-11-25T04:13:12.704Z,50.28
2017-11-25T04:15:41.790Z,42.55
2017-11-25T04:18:10.913Z,38.58
2017-11-25T04:20:39.958Z,40.12
2017-11-25T04:23:09.797Z,35.72
2017-11-25T04:25:38.790Z,42.13
2017-11-25T04:28:10.029Z,43.28
2017-11-25T04:30:39.789Z,40.47
2017-11-25T04:33:08.918Z,44.97
2017-11-25T04:35:38.710Z,45.92
2017-11-25T04:38:07.740Z,51.80
2017-11-25T04:40:37.860Z,57.35
2017-11-25T04:43:06.907Z,52.95
2017-11-25T04:45:35.963Z,49.15
2017-11-25T04:48:05.088Z,49.83
2017-11-25T04:50:34.335Z,48.28
2017-11-25T04:53:04.275Z,50.28
2017-11-25T04:55:34.210Z,50.22
2017-11-25T04:58:03.359Z,45.10
2017-11-25T05:00:33.627Z,46.10
2017-11-25T05:03:02.974Z,37.03
2017-11-25T05:05:32.972Z,41.33
2017-11-25T05:08:02.448Z,42.80
2017-11-25T05:10:32.013Z,43.25
2017-11-25T05:13:01.833Z,39.45
2017-11-25T05:15:31.100Z,45.22
2017-11-25T05:18:00.065Z,45.63
2017-11-25T05:20:29.215Z,48.10
2017-11-25T05:22:58.901Z,46.95
2017-11-25T05:25:28.040Z,47.72
2017-11-25T05:27:57.084Z,45.55
2017-11-25T05:30:26.942Z,40.75
2017-11-25T05:32:55.975Z,34.25
2017-11-25T05:35:25.003Z,32.17
2017-11-25T05:37:54.839Z,34.53
2017-11-25T05:40:24.052Z,31.92
2017-11-25T05:42:53.168Z,31.05
2017-11-25T05:45:22.282Z,29.40
2017-11-25T05:47:51.287Z,27.40
2017-11-25T05:50:20.377Z,26.08
2017-11-25T05:52:49.444Z,22.65
2017-11-25T05:55:18.467Z,22.90
2017-11-25T05:57:47.514Z,19.00
2017-11-25T06:00:48.081Z,18.40
2017-11-25T06:03:17.231Z,20.10
2017-11-25T06:05:46.335Z,17.48
2017-11-25T06:08:15.403Z,14.57
2017-11-25T06:10:46.177Z,14.07
2017-11-25T06:13:15.213Z,10.60
2017-11-25T06:15:45.259Z,16.15
2017-11-25T06:18:14.329Z,21.08
2017-11-25T06:20:44.220Z,28.02
2017-11-25T06:23:13.190Z,26.73
2017-11-25T06:25:42.329Z,18.85
2017-11-25T06:28:13.161Z,17.50
2017-11-25T06:30:42.286Z,17.30
2017-11-25T06:33:12.085Z,15.73
2017-11-25T06:35:41.962Z,14.65
2017-11-25T06:38:11.006Z,9.90
2017-11-25T06:40:40.817Z,10.68
2017-11-25T06:43:10.898Z,13.07
2017-11-25T06:45:40.011Z,9.65
2017-11-25T06:48:09.806Z,11.10
2017-11-25T06:50:39.096Z,10.85
2017-11-25T06:53:08.233Z,14.50
2017-11-25T06:55:37.448Z,15.80
2017-11-25T06:58:06.748Z,13.07
2017-11-25T07:00:36.030Z,14.18
2017-11-25T07:03:07.677Z,14.05
2017-11-25T07:05:37.651Z,15.88
2017-11-25T07:08:06.819Z,16.80
2017-11-25T07:10:36.690Z,16.70
2017-11-25T07:13:05.681Z,15.48
2017-11-25T07:15:34.749Z,17.17
2017-11-25T07:18:03.936Z,15.50
2017-11-25T07:20:33.045Z,20.17
2017-11-25T07:23:02.265Z,21.45
2017-11-25T07:25:31.581Z,21.87
2017-11-25T07:28:01.647Z,24.50
2017-11-25T07:30:31.566Z,16.85
2017-11-25T07:33:00.794Z,15.20
2017-11-25T07:35:29.984Z,17.17
2017-11-25T07:37:59.864Z,12.77
2017-11-25T07:40:29.838Z,12.82
2017-11-25T07:42:59.689Z,10.48
2017-11-25T07:45:28.872Z,11.88
2017-11-25T07:47:58.304Z,13.73
2017-11-25T07:50:27.520Z,12.98
2017-11-25T07:52:56.548Z,12.35
2017-11-25T07:55:26.429Z,13.65
2017-11-25T07:57:55.497Z,11.10
2017-11-25T08:00:24.843Z,12.00
2017-11-25T08:02:54.363Z,15.68
2017-11-25T08:05:23.836Z,12.48
2017-11-25T08:07:53.015Z,13.75
2017-11-25T08:10:22.044Z,12.00
2017-11-25T08:12:51.897Z,13.45
2017-11-25T08:15:20.963Z,13.90
2017-11-25T08:17:50.763Z,15.48
2017-11-25T08:20:20.679Z,5.87
2017-11-25T08:22:50.506Z,4.25
2017-11-25T08:25:20.906Z,3.35
2017-11-25T08:27:50.071Z,5.85
2017-11-25T08:30:20.064Z,2.95
2017-11-25T08:32:49.357Z,2.72
2017-11-25T08:35:18.650Z,2.87
2017-11-25T08:37:48.549Z,3.15
2017-11-25T08:40:19.504Z,6.35
2017-11-25T08:42:48.761Z,3.53
2017-11-25T08:45:21.986Z,4.50
2017-11-25T08:47:51.093Z,4.60
2017-11-25T08:50:21.912Z,3.80
2017-11-25T08:52:51.715Z,5.03
2017-11-25T08:55:23.957Z,6.00
2017-11-25T08:57:52.979Z,3.10
2017-11-25T09:00:22.257Z,2.95
2017-11-25T09:02:51.414Z,3.15
2017-11-25T09:05:20.677Z,2.97
2017-11-25T09:07:50.481Z,3.87
2017-11-25T09:10:21.544Z,3.37
2017-11-25T09:13:22.816Z,2.50
2017-11-25T09:15:53.656Z,2.90
2017-11-25T09:18:23.829Z,2.85
2017-11-25T09:20:53.026Z,3.42
2017-11-25T09:23:22.154Z,2.65
2017-11-25T09:25:51.316Z,2.42
2017-11-25T09:28:20.550Z,3.35
2017-11-25T09:30:50.951Z,2.80
2017-11-25T09:33:20.891Z,3.42
2017-11-25T09:35:50.765Z,2.53
2017-11-25T09:38:19.993Z,2.70
2017-11-25T09:40:49.508Z,3.28
2017-11-25T09:43:18.987Z,3.22
2017-11-25T09:45:49.138Z,3.20
2017-11-25T09:48:18.304Z,5.30
2017-11-25T09:50:49.050Z,3.00
2017-11-25T09:53:19.043Z,2.55
2017-11-25T09:55:48.295Z,2.22
2017-11-25T09:58:18.654Z,2.00
2017-11-25T10:00:47.951Z,2.40
2017-11-25T10:03:17.133Z,2.87
2017-11-25T10:06:48.616Z,2.92
2017-11-25T10:09:18.044Z,2.25
2017-11-25T10:11:47.614Z,2.75
2017-11-25T10:14:16.810Z,2.62
2017-11-25T10:16:47.709Z,2.83
2017-11-25T10:19:18.012Z,3.00
2017-11-25T10:21:48.239Z,2.50
2017-11-25T10:24:17.989Z,2.33
2017-11-25T10:26:47.175Z,2.22
2017-11-25T10:29:16.803Z,3.08
2017-11-25T10:31:46.105Z,2.83
2017-11-25T10:34:15.286Z,3.20
2017-11-25T10:36:45.414Z,2.50
2017-11-25T10:39:14.484Z,2.22
2017-11-25T10:41:46.749Z,2.70
2017-11-25T10:44:16.024Z,2.33
2017-11-25T10:46:46.011Z,2.60
2017-11-25T10:49:15.257Z,2.15
2017-11-25T10:51:44.435Z,3.15
2017-11-25T10:54:14.419Z,3.92
2017-11-25T10:56:43.449Z,2.80
2017-11-25T10:59:12.733Z,2.37
2017-11-25T11:01:43.647Z,2.45
2017-11-25T11:04:13.493Z,3.53
2017-11-25T11:06:44.512Z,2.78
2017-11-25T11:09:14.032Z,2.78
2017-11-25T11:11:43.311Z,3.05
2017-11-25T11:14:12.666Z,3.08
2017-11-25T11:16:44.723Z,3.28
2017-11-25T11:19:14.632Z,3.20
2017-11-25T11:21:44.539Z,2.53
2017-11-25T11:24:14.874Z,3.35
2017-11-25T11:26:45.025Z,3.20
2017-11-25T11:29:14.516Z,3.25
2017-11-25T11:31:43.934Z,3.60
2017-11-25T11:34:13.288Z,3.00
2017-11-25T11:36:43.561Z,3.20
2017-11-25T11:39:12.981Z,4.57
2017-11-25T11:41:42.547Z,3.83
2017-11-25T11:44:12.650Z,4.93
2017-11-25T11:46:42.141Z,7.62
2017-11-25T11:49:14.134Z,3.47
2017-11-25T11:51:45.567Z,3.00
2017-11-25T11:54:16.719Z,4.40
2017-11-25T11:56:47.288Z,3.83
2017-11-25T11:59:17.700Z,4.53
2017-11-25T12:01:47.065Z,4.20
2017-11-25T12:04:16.392Z,5.15
2017-11-25T12:06:45.702Z,4.18
2017-11-25T12:09:15.047Z,4.90
2017-11-25T12:11:45.928Z,4.32
2017-11-25T12:14:15.286Z,7.05
2017-11-25T12:16:46.332Z,5.53
2017-11-25T12:19:16.399Z,4.78
2017-11-25T12:21:45.746Z,5.32
2017-11-25T12:24:16.046Z,5.75
2017-11-25T12:26:46.835Z,4.20
2017-11-25T12:29:16.125Z,4.30
2017-11-25T12:31:46.242Z,5.15
2017-11-25T12:34:16.350Z,4.45
2017-11-25T12:36:46.362Z,6.03
2017-11-25T12:39:15.812Z,6.45
2017-11-25T12:41:45.101Z,5.00
2017-11-25T12:44:16.024Z,4.35
2017-11-25T12:46:45.527Z,4.20
2017-11-25T12:49:18.805Z,5.15
2017-11-25T12:51:48.729Z,4.00
2017-11-25T12:54:19.264Z,5.50
2017-11-25T12:56:49.257Z,5.65
2017-11-25T12:59:22.597Z,4.03
2017-11-25T13:01:51.713Z,4.78
2017-11-25T13:04:21.261Z,5.87
2017-11-25T13:06:51.926Z,4.22
2017-11-25T13:09:21.213Z,4.65
2017-11-25T13:11:50.657Z,4.12
2017-11-25T13:14:20.064Z,3.92
2017-11-25T13:16:51.271Z,3.62
2017-11-25T13:19:21.421Z,4.30
2017-11-25T13:21:51.104Z,4.65
2017-11-25T13:24:23.701Z,3.72
2017-11-25T13:26:55.658Z,3.75
2017-11-25T13:29:24.895Z,3.25
2017-11-25T13:31:55.899Z,3.55
2017-11-25T13:34:25.170Z,3.90
2017-11-25T13:36:55.196Z,3.03
2017-11-25T13:39:24.399Z,3.83
2017-11-25T13:41:53.580Z,3.28
2017-11-25T13:44:24.485Z,3.05
2017-11-25T13:46:58.756Z,4.10
2017-11-25T13:49:31.387Z,2.78
2017-11-25T13:52:06.407Z,2.60
2017-11-25T13:54:38.165Z,2.75
2017-11-25T13:57:12.979Z,2.90
2017-11-25T14:03:16.696Z,2.67
2017-11-25T14:05:48.155Z,5.37
2017-11-25T14:08:18.297Z,3.35
2017-11-25T14:10:55.935Z,2.30
2017-11-25T14:13:26.939Z,2.97
2017-11-25T14:15:56.859Z,4.45
2017-11-25T14:18:28.537Z,3.50
2017-11-25T14:21:00.359Z,4.35
2017-11-25T14:23:29.607Z,4.75
2017-11-25T14:25:58.939Z,4.28
2017-11-25T14:28:28.087Z,3.50
2017-11-25T14:30:59.956Z,5.05
2017-11-25T14:33:29.645Z,5.90
2017-11-25T14:36:00.568Z,7.85
2017-11-25T14:38:30.732Z,12.18
2017-11-25T14:41:01.101Z,8.30
2017-11-25T14:43:35.996Z,7.50
2017-11-25T14:46:05.424Z,7.30
2017-11-25T14:48:35.563Z,8.95
2017-11-25T14:51:05.467Z,8.00
2017-11-25T14:53:36.041Z,9.02
2017-11-25T14:56:08.396Z,9.48
2017-11-25T14:58:39.528Z,12.73
2017-11-25T15:01:12.477Z,10.40
2017-11-25T15:03:43.547Z,9.52
2017-11-25T15:06:15.567Z,8.45
2017-11-25T15:08:45.313Z,9.10
2017-11-25T15:11:16.407Z,9.00
2017-11-25T15:13:45.524Z,9.07
2017-11-25T15:16:15.921Z,8.73
2017-11-25T15:18:45.216Z,10.52
2017-11-25T15:21:23.964Z,9.55
2017-11-25T15:23:53.221Z,12.45
2017-11-25T15:26:23.365Z,9.48
2017-11-25T15:28:53.167Z,9.95
2017-11-25T15:31:23.287Z,12.85
2017-11-25T15:33:52.794Z,15.02
2017-11-25T15:37:25.700Z,13.27
2017-11-25T15:39:55.138Z,11.85
2017-11-25T15:42:24.824Z,9.77
2017-11-25T15:44:54.131Z,13.10
2017-11-25T15:47:24.186Z,11.73
2017-11-25T15:49:53.488Z,14.50
2017-11-25T15:52:24.277Z,17.12
2017-11-25T15:54:53.966Z,13.93
2017-11-25T15:57:24.126Z,14.05
2017-11-25T15:59:53.385Z,11.77
2017-11-25T16:02:22.756Z,15.98
2017-11-25T16:04:52.096Z,16.92
2017-11-25T16:07:21.986Z,15.77
2017-11-25T16:09:52.078Z,18.65
2017-11-25T16:12:21.510Z,16.67
2017-11-25T16:14:51.480Z,18.67
2017-11-25T16:17:24.535Z,15.90
2017-11-25T16:19:54.648Z,18.17
2017-11-25T16:22:25.218Z,18.65
2017-11-25T16:24:55.278Z,19.85
2017-11-25T16:27:29.730Z,21.08
2017-11-25T16:30:01.371Z,23.25
2017-11-25T16:32:32.217Z,17.90
2017-11-25T16:35:17.547Z,24.15
2017-11-25T16:37:48.507Z,19.85
2017-11-25T16:40:20.148Z,21.83
2017-11-25T16:42:50.255Z,23.45
2017-11-25T16:45:24.800Z,25.02
2017-11-25T16:47:59.232Z,22.70
2017-11-25T16:50:28.606Z,22.02
2017-11-25T16:52:59.588Z,21.87
2017-11-25T16:55:29.163Z,23.80
2017-11-25T16:57:59.118Z,22.20
2017-11-25T17:00:30.318Z,24.65
2017-11-25T17:02:59.662Z,22.05
2017-11-25T17:05:29.752Z,21.77
2017-11-25T17:08:01.736Z,26.90
2017-11-25T17:10:31.235Z,23.65
2017-11-25T17:13:06.154Z,25.95
2017-11-25T17:15:38.257Z,31.08
2017-11-25T17:18:09.515Z,26.23
2017-11-25T17:20:40.447Z,25.98
2017-11-25T17:23:10.188Z,27.45
2017-11-25T17:25:41.545Z,28.35
2017-11-25T17:28:14.153Z,31.25
2017-11-25T17:30:45.188Z,31.62
2017-11-25T17:33:15.398Z,26.27
2017-11-25T17:35:45.361Z,27.75
2017-11-25T17:38:15.721Z,25.45
2017-11-25T17:40:46.229Z,24.90
2017-11-25T17:43:17.442Z,29.73
2017-11-25T17:45:47.385Z,29.42
2017-11-25T17:48:16.944Z,28.58
2017-11-25T17:50:48.269Z,25.80
2017-11-25T17:53:17.591Z,27.87
2017-11-25T17:55:48.289Z,27.62
2017-11-25T17:58:17.840Z,30.77
2017-11-25T18:00:48.071Z,32.03
2017-11-25T18:03:17.733Z,26.62
2017-11-25T18:05:47.884Z,27.90
2017-11-25T18:08:17.061Z,31.40
2017-11-25T18:10:46.392Z,31.02
2017-11-25T18:13:15.711Z,27.70
2017-11-25T18:15:44.992Z,27.67
2017-11-25T18:18:15.489Z,35.13
2017-11-25T18:20:47.555Z,29.10
2017-11-25T18:23:17.596Z,32.10
2017-11-25T18:25:46.828Z,34.50
2017-11-25T18:28:18.174Z,29.77
2017-11-25T18:30:48.236Z,33.05
2017-11-25T18:33:17.339Z,33.30
2017-11-25T18:35:49.300Z,33.90
2017-11-25T18:38:25.012Z,31.35
2017-11-25T18:40:55.588Z,30.10
2017-11-25T18:43:26.836Z,35.40
2017-11-25T18:45:56.016Z,33.03
2017-11-25T18:48:25.996Z,32.28
2017-11-25T18:50:55.277Z,32.30
2017-11-25T18:53:24.760Z,29.70
2017-11-25T18:55:55.634Z,26.77
2017-11-25T18:58:25.749Z,30.05
2017-11-25T19:00:55.481Z,32.05
2017-11-25T19:03:25.507Z,34.88
2017-11-25T19:05:55.982Z,28.60
2017-11-25T19:08:25.623Z,31.98
2017-11-25T19:10:56.120Z,31.37
2017-11-25T19:13:25.536Z,31.40
2017-11-25T19:15:55.064Z,34.83
2017-11-25T19:18:25.520Z,31.12
2017-11-25T19:20:56.182Z,32.92
2017-11-25T19:23:26.732Z,35.38
2017-11-25T19:25:56.254Z,31.60
2017-11-25T19:28:26.227Z,25.83
2017-11-25T19:30:58.650Z,28.70
2017-11-25T19:33:28.392Z,29.37
2017-11-25T19:35:57.738Z,27.67
2017-11-25T19:38:28.146Z,28.98
2017-11-25T19:40:57.987Z,29.10
2017-11-25T19:43:28.469Z,23.75
2017-11-25T19:45:57.919Z,34.50
2017-11-25T19:48:27.873Z,28.00
2017-11-25T19:50:58.261Z,32.75
2017-11-25T19:53:27.668Z,30.35
2017-11-25T19:55:57.773Z,30.37
2017-11-25T19:58:28.200Z,27.60
2017-11-25T20:00:58.700Z,29.52
2017-11-25T20:03:29.785Z,26.73
2017-11-25T20:05:59.580Z,25.02
2017-11-25T20:08:29.721Z,25.52
2017-11-25T20:10:59.267Z,24.33
2017-11-25T20:13:30.523Z,26.65
2017-11-25T20:16:00.008Z,26.35
2017-11-25T20:18:29.503Z,32.08
2017-11-25T20:20:58.652Z,29.85
2017-11-25T20:23:29.322Z,31.15
2017-11-25T20:25:58.799Z,29.10
2017-11-25T20:28:28.337Z,26.50
2017-11-25T20:30:57.976Z,26.45
2017-11-25T20:33:27.939Z,27.67
2017-11-25T20:36:00.158Z,26.20
2017-11-25T20:38:31.051Z,24.48
2017-11-25T20:41:00.528Z,26.67
2017-11-25T20:43:31.812Z,24.33
2017-11-25T20:46:01.993Z,26.85
2017-11-25T20:48:31.478Z,25.77
2017-11-25T20:51:04.096Z,26.23
2017-11-25T20:53:35.858Z,25.42
2017-11-25T20:56:07.017Z,25.27
2017-11-25T20:58:38.630Z,28.17
2017-11-25T21:01:10.086Z,25.02
2017-11-25T21:03:40.111Z,26.95
2017-11-25T21:06:11.855Z,27.23
2017-11-25T21:08:41.737Z,28.92
2017-11-25T21:11:14.218Z,30.83
2017-11-25T21:13:44.907Z,29.58
2017-11-25T21:16:15.308Z,30.08
2017-11-25T21:18:45.043Z,24.20
2017-11-25T21:21:14.582Z,26.05
2017-11-25T21:23:46.162Z,23.27
2017-11-25T21:26:15.360Z,27.30
2017-11-25T21:28:45.819Z,28.75
2017-11-25T21:31:17.064Z,27.80
2017-11-25T21:33:46.771Z,26.40
2017-11-25T21:36:22.901Z,27.80
2017-11-25T21:38:53.551Z,37.97
2017-11-25T21:41:23.963Z,32.13
2017-11-25T21:43:53.380Z,28.15
2017-11-25T21:46:23.178Z,29.58
2017-11-25T21:48:52.953Z,30.17
2017-11-25T21:51:23.192Z,30.12
2017-11-25T21:53:54.896Z,30.75
2017-11-25T21:56:24.078Z,29.23
2017-11-25T21:58:53.646Z,27.08
2017-11-25T22:01:24.280Z,32.35
2017-11-25T22:03:54.402Z,33.40
2017-11-25T22:06:23.748Z,28.35
2017-11-25T22:08:52.792Z,32.30
2017-11-25T22:11:22.221Z,32.95
2017-11-25T22:13:51.526Z,32.60
2017-11-25T22:16:20.749Z,38.25
2017-11-25T22:18:49.824Z,41.28
2017-11-25T22:21:20.000Z,33.63
2017-11-25T22:23:49.897Z,37.25
2017-11-25T22:26:19.180Z,38.25
2017-11-25T22:28:48.601Z,36.60
2017-11-25T22:31:23.989Z,34.00
2017-11-25T22:33:53.287Z,38.88
2017-11-25T22:36:22.655Z,36.17
2017-11-25T22:38:52.472Z,35.00
2017-11-25T22:41:22.432Z,35.72
2017-11-25T22:43:51.473Z,34.22
2017-11-25T22:46:21.511Z,33.80
2017-11-25T22:48:51.811Z,33.42
2017-11-25T22:51:21.115Z,33.95
2017-11-25T22:53:50.962Z,34.97
2017-11-25T22:56:20.143Z,30.00
2017-11-25T22:58:49.189Z,30.35
2017-11-25T23:01:22.805Z,34.25
2017-11-25T23:03:51.881Z,29.65
2017-11-25T23:06:21.350Z,28.62
2017-11-25T23:08:51.130Z,25.45
2017-11-25T23:11:20.450Z,28.00
2017-11-25T23:13:49.903Z,23.83
2017-11-25T23:16:19.090Z,23.87
2017-11-25T23:18:48.118Z,24.20
2017-11-25T23:21:17.223Z,24.55
2017-11-25T23:23:47.145Z,23.23
2017-11-25T23:26:17.045Z,21.55
2017-11-25T23:28:46.254Z,24.48
2017-11-25T23:31:17.374Z,19.60
2017-11-25T23:33:46.498Z,24.77
2017-11-25T23:36:16.540Z,17.40
2017-11-25T23:38:45.574Z,23.25
2017-11-25T23:41:14.580Z,25.30
2017-11-25T23:43:43.583Z,24.35
2017-11-25T23:46:12.643Z,22.80
2017-11-25T23:48:41.665Z,20.50
2017-11-25T23:51:10.809Z,23.92
2017-11-25T23:53:39.925Z,21.75
2017-11-25T23:56:09.769Z,24.67
2017-11-25T23:58:38.966Z,22.35
